Terminal Aerodrome Forecast
Issued by NWS

Home | Current Version | Previous Version | Text Only | Print | Product List | Glossary On
Versions: 1 2 3 4 5 6 7 8 9 10 11 12 13 14 15 16 17 18 19 20 21 22 23
000
FTUS41 KOKX 182329
TAFSWF
TAF
KSWF 182329Z 1900/2006 VRB03KT P6SM BKN250
     FM191400 22007KT P6SM FEW020 SCT100 BKN250
     FM192200 20005KT 5SM -SHRA BR BKN020 OVC040
     FM200300 22005KT 3SM BR BKN010
      AMD NOT SKED=

USA.gov is the U.S. government's official web portal to all federal, state and local government web resources and services.